Villa del Rosario, Puerto Rico
Current Conditions -  °F | °C
As of 7:53 AM on Friday 28 Nov 2014 (Local Time) from TJNR Reporting Station
Clear Clear  
Wind Chill: 76°   Ceiling: Unl
Heat Index: 76°   Visibility: 10mi
Dew Point: 73°   Wind: 0mph
Humidity: 91%   Direction: NA
Pressure: 30"   Gusts: NA
Location:  18.2147°N, 65.7358°W
Report Text: TJNR 281153Z AUTO 00000KT 10SM CLR 24/23 A3000 RMK AO2 SLP157 T02440228 53019 $
Loading
Personal Weather Stations






























Interactive Weather Map New forecast layout! Learn more

10-Day Weather Forecast

Advertisements
Track Severe Weather on mobile